sensor_id;sensor_type;location;lat;lon;timestamp;P1;durP1;ratioP1;P2;durP2;ratioP2
11447;SDS011;43755;49.736;8.734;2023-05-02T00:01:33;2.80;;;2.60;;
11447;SDS011;43755;49.736;8.734;2023-05-02T00:03:35;3.53;;;3.22;;
11447;SDS011;43755;49.736;8.734;2023-05-02T00:05:36;2.90;;;2.80;;
11447;SDS011;43755;49.736;8.734;2023-05-02T00:07:39;3.20;;;2.90;;
11447;SDS011;43755;49.736;8.734;2023-05-02T00:09:41;3.65;;;3.35;;
11447;SDS011;43755;49.736;8.734;2023-05-02T00:11:42;3.53;;;2.78;;
11447;SDS011;43755;49.736;8.734;2023-05-02T00:13:43;3.30;;;3.00;;
11447;SDS011;43755;49.736;8.734;2023-05-02T00:15:45;3.30;;;3.10;;
11447;SDS011;43755;49.736;8.734;2023-05-02T00:17:46;3.20;;;3.00;;
11447;SDS011;43755;49.736;8.734;2023-05-02T00:19:48;5.32;;;3.40;;
11447;SDS011;43755;49.736;8.734;2023-05-02T00:21:49;3.50;;;3.20;;
11447;SDS011;43755;49.736;8.734;2023-05-02T00:23:52;3.65;;;3.42;;
11447;SDS011;43755;49.736;8.734;2023-05-02T00:25:53;3.35;;;3.15;;
11447;SDS011;43755;49.736;8.734;2023-05-02T00:27:54;3.05;;;2.85;;
11447;SDS011;43755;49.736;8.734;2023-05-02T00:29:56;3.78;;;3.47;;
11447;SDS011;43755;49.736;8.734;2023-05-02T00:31:58;3.50;;;3.30;;
11447;SDS011;43755;49.736;8.734;2023-05-02T00:34:00;3.38;;;3.17;;
11447;SDS011;43755;49.736;8.734;2023-05-02T00:36:02;3.60;;;3.30;;
11447;SDS011;43755;49.736;8.734;2023-05-02T00:38:03;3.25;;;3.05;;
11447;SDS011;43755;49.736;8.734;2023-05-02T00:40:07;3.83;;;3.53;;
11447;SDS011;43755;49.736;8.734;2023-05-02T00:42:08;3.67;;;3.40;;
11447;SDS011;43755;49.736;8.734;2023-05-02T00:44:10;3.75;;;3.45;;
11447;SDS011;43755;49.736;8.734;2023-05-02T00:46:13;3.58;;;3.38;;
11447;SDS011;43755;49.736;8.734;2023-05-02T00:48:14;3.63;;;3.38;;
11447;SDS011;43755;49.736;8.734;2023-05-02T00:50:18;4.47;;;3.85;;
11447;SDS011;43755;49.736;8.734;2023-05-02T00:52:20;3.90;;;3.60;;
11447;SDS011;43755;49.736;8.734;2023-05-02T00:54:21;3.70;;;3.50;;
11447;SDS011;43755;49.736;8.734;2023-05-02T00:56:24;4.10;;;3.80;;
11447;SDS011;43755;49.736;8.734;2023-05-02T00:58:26;5.93;;;4.13;;
11447;SDS011;43755;49.736;8.734;2023-05-02T01:00:30;5.10;;;4.22;;
11447;SDS011;43755;49.736;8.734;2023-05-02T01:02:42;4.80;;;4.40;;
11447;SDS011;43755;49.736;8.734;2023-05-02T01:04:53;4.60;;;4.20;;
11447;SDS011;43755;49.736;8.734;2023-05-02T01:07:07;3.90;;;3.70;;
11447;SDS011;43755;49.736;8.734;2023-05-02T01:09:24;4.82;;;3.35;;
11447;SDS011;43755;49.736;8.734;2023-05-02T01:11:38;3.50;;;3.25;;
11447;SDS011;43755;49.736;8.734;2023-05-02T01:13:48;4.00;;;3.75;;
11447;SDS011;43755;49.736;8.734;2023-05-02T01:15:53;3.63;;;3.40;;
11447;SDS011;43755;49.736;8.734;2023-05-02T01:17:58;4.10;;;3.55;;
11447;SDS011;43755;49.736;8.734;2023-05-02T01:20:02;3.70;;;3.50;;
11447;SDS011;43755;49.736;8.734;2023-05-02T01:22:08;3.70;;;3.25;;
11447;SDS011;43755;49.736;8.734;2023-05-02T01:24:12;4.00;;;3.70;;
11447;SDS011;43755;49.736;8.734;2023-05-02T01:26:19;4.00;;;3.70;;
11447;SDS011;43755;49.736;8.734;2023-05-02T01:28:30;4.03;;;3.55;;
11447;SDS011;43755;49.736;8.734;2023-05-02T01:30:42;3.90;;;3.60;;
11447;SDS011;43755;49.736;8.734;2023-05-02T01:32:46;4.18;;;3.88;;
11447;SDS011;43755;49.736;8.734;2023-05-02T01:34:49;4.18;;;3.78;;
11447;SDS011;43755;49.736;8.734;2023-05-02T01:36:54;4.30;;;3.90;;
11447;SDS011;43755;49.736;8.734;2023-05-02T01:38:59;3.97;;;3.70;;
11447;SDS011;43755;49.736;8.734;2023-05-02T01:41:02;4.40;;;4.00;;
11447;SDS011;43755;49.736;8.734;2023-05-02T01:43:06;4.47;;;4.05;;
11447;SDS011;43755;49.736;8.734;2023-05-02T01:45:09;4.35;;;4.05;;
11447;SDS011;43755;49.736;8.734;2023-05-02T01:47:13;3.85;;;3.38;;
11447;SDS011;43755;49.736;8.734;2023-05-02T01:49:15;3.95;;;3.65;;
11447;SDS011;43755;49.736;8.734;2023-05-02T01:51:19;3.80;;;3.53;;
11447;SDS011;43755;49.736;8.734;2023-05-02T01:53:23;3.95;;;3.65;;
11447;SDS011;43755;49.736;8.734;2023-05-02T01:55:25;4.07;;;3.78;;
11447;SDS011;43755;49.736;8.734;2023-05-02T01:57:27;4.20;;;3.33;;
11447;SDS011;43755;49.736;8.734;2023-05-02T01:59:29;3.88;;;3.60;;
11447;SDS011;43755;49.736;8.734;2023-05-02T02:01:33;3.95;;;3.63;;
11447;SDS011;43755;49.736;8.734;2023-05-02T02:03:37;6.10;;;3.65;;
11447;SDS011;43755;49.736;8.734;2023-05-02T02:05:40;4.20;;;3.80;;
11447;SDS011;43755;49.736;8.734;2023-05-02T02:07:42;4.68;;;4.28;;
11447;SDS011;43755;49.736;8.734;2023-05-02T02:09:44;4.82;;;4.40;;
11447;SDS011;43755;49.736;8.734;2023-05-02T02:11:46;4.00;;;3.70;;
11447;SDS011;43755;49.736;8.734;2023-05-02T02:13:54;4.65;;;4.20;;
11447;SDS011;43755;49.736;8.734;2023-05-02T02:16:02;4.78;;;4.38;;
11447;SDS011;43755;49.736;8.734;2023-05-02T02:18:08;4.85;;;4.13;;
11447;SDS011;43755;49.736;8.734;2023-05-02T02:20:13;4.35;;;3.95;;
11447;SDS011;43755;49.736;8.734;2023-05-02T02:22:16;4.68;;;4.28;;
11447;SDS011;43755;49.736;8.734;2023-05-02T02:24:20;4.32;;;4.03;;
11447;SDS011;43755;49.736;8.734;2023-05-02T02:26:23;4.47;;;4.07;;
11447;SDS011;43755;49.736;8.734;2023-05-02T02:28:24;4.75;;;4.28;;
11447;SDS011;43755;49.736;8.734;2023-05-02T02:30:26;5.63;;;4.65;;
11447;SDS011;43755;49.736;8.734;2023-05-02T02:32:27;5.38;;;4.70;;
11447;SDS011;43755;49.736;8.734;2023-05-02T02:34:29;5.00;;;4.60;;
11447;SDS011;43755;49.736;8.734;2023-05-02T02:36:34;7.05;;;5.25;;
11447;SDS011;43755;49.736;8.734;2023-05-02T02:38:41;4.80;;;4.40;;
11447;SDS011;43755;49.736;8.734;2023-05-02T02:40:48;4.82;;;4.43;;
11447;SDS011;43755;49.736;8.734;2023-05-02T02:42:58;5.57;;;5.15;;
11447;SDS011;43755;49.736;8.734;2023-05-02T02:45:08;6.03;;;5.45;;
11447;SDS011;43755;49.736;8.734;2023-05-02T02:47:18;5.65;;;5.25;;
11447;SDS011;43755;49.736;8.734;2023-05-02T02:49:26;5.05;;;4.65;;
11447;SDS011;43755;49.736;8.734;2023-05-02T02:51:38;6.38;;;5.53;;
11447;SDS011;43755;49.736;8.734;2023-05-02T02:53:55;5.80;;;5.40;;
11447;SDS011;43755;49.736;8.734;2023-05-02T02:56:03;5.93;;;5.35;;
11447;SDS011;43755;49.736;8.734;2023-05-02T02:58:12;6.07;;;5.57;;
11447;SDS011;43755;49.736;8.734;2023-05-02T03:00:23;6.00;;;5.50;;
11447;SDS011;43755;49.736;8.734;2023-05-02T03:02:27;6.32;;;5.82;;
11447;SDS011;43755;49.736;8.734;2023-05-02T03:04:33;6.32;;;5.72;;
11447;SDS011;43755;49.736;8.734;2023-05-02T03:06:38;6.25;;;5.65;;
11447;SDS011;43755;49.736;8.734;2023-05-02T03:08:40;6.60;;;6.00;;
11447;SDS011;43755;49.736;8.734;2023-05-02T03:10:42;6.05;;;5.63;;
11447;SDS011;43755;49.736;8.734;2023-05-02T03:12:44;6.43;;;5.93;;
11447;SDS011;43755;49.736;8.734;2023-05-02T03:14:45;6.53;;;5.93;;
11447;SDS011;43755;49.736;8.734;2023-05-02T03:16:47;7.50;;;6.80;;
11447;SDS011;43755;49.736;8.734;2023-05-02T03:18:49;6.28;;;5.72;;
11447;SDS011;43755;49.736;8.734;2023-05-02T03:20:51;7.38;;;6.78;;
11447;SDS011;43755;49.736;8.734;2023-05-02T03:22:54;7.97;;;7.28;;
11447;SDS011;43755;49.736;8.734;2023-05-02T03:24:55;7.88;;;7.25;;
11447;SDS011;43755;49.736;8.734;2023-05-02T03:26:57;8.18;;;7.45;;
11447;SDS011;43755;49.736;8.734;2023-05-02T03:28:59;7.53;;;6.93;;
11447;SDS011;43755;49.736;8.734;2023-05-02T03:31:00;7.45;;;6.85;;
11447;SDS011;43755;49.736;8.734;2023-05-02T03:33:02;8.43;;;7.03;;
11447;SDS011;43755;49.736;8.734;2023-05-02T03:35:07;7.78;;;7.15;;
11447;SDS011;43755;49.736;8.734;2023-05-02T03:37:08;8.27;;;7.57;;
11447;SDS011;43755;49.736;8.734;2023-05-02T03:39:11;8.18;;;7.47;;
11447;SDS011;43755;49.736;8.734;2023-05-02T03:41:12;9.25;;;8.35;;
11447;SDS011;43755;49.736;8.734;2023-05-02T03:43:14;9.40;;;8.45;;
11447;SDS011;43755;49.736;8.734;2023-05-02T03:45:15;9.90;;;9.00;;
11447;SDS011;43755;49.736;8.734;2023-05-02T03:47:17;10.50;;;9.43;;
11447;SDS011;43755;49.736;8.734;2023-05-02T03:49:18;11.02;;;10.00;;
11447;SDS011;43755;49.736;8.734;2023-05-02T03:51:20;12.35;;;11.13;;
11447;SDS011;43755;49.736;8.734;2023-05-02T03:53:21;11.73;;;10.63;;
11447;SDS011;43755;49.736;8.734;2023-05-02T03:55:24;13.40;;;12.18;;
11447;SDS011;43755;49.736;8.734;2023-05-02T03:57:28;15.30;;;13.50;;
11447;SDS011;43755;49.736;8.734;2023-05-02T03:59:31;13.45;;;12.20;;
11447;SDS011;43755;49.736;8.734;2023-05-02T04:01:33;13.80;;;12.43;;
11447;SDS011;43755;49.736;8.734;2023-05-02T04:03:34;13.55;;;12.25;;
11447;SDS011;43755;49.736;8.734;2023-05-02T04:05:35;13.02;;;11.85;;
11447;SDS011;43755;49.736;8.734;2023-05-02T04:07:37;14.13;;;12.80;;
11447;SDS011;43755;49.736;8.734;2023-05-02T04:09:38;15.05;;;13.63;;
11447;SDS011;43755;49.736;8.734;2023-05-02T04:11:41;14.07;;;12.70;;
11447;SDS011;43755;49.736;8.734;2023-05-02T04:13:42;14.85;;;13.45;;
11447;SDS011;43755;49.736;8.734;2023-05-02T04:15:44;17.35;;;15.60;;
11447;SDS011;43755;49.736;8.734;2023-05-02T04:17:45;16.52;;;14.93;;
11447;SDS011;43755;49.736;8.734;2023-05-02T04:19:47;19.20;;;16.85;;
11447;SDS011;43755;49.736;8.734;2023-05-02T04:21:48;17.85;;;15.95;;
11447;SDS011;43755;49.736;8.734;2023-05-02T04:23:50;20.15;;;18.15;;
11447;SDS011;43755;49.736;8.734;2023-05-02T04:25:51;18.30;;;16.60;;
11447;SDS011;43755;49.736;8.734;2023-05-02T04:27:55;17.08;;;15.45;;
11447;SDS011;43755;49.736;8.734;2023-05-02T04:29:56;14.65;;;13.25;;
11447;SDS011;43755;49.736;8.734;2023-05-02T04:31:58;16.73;;;15.02;;
11447;SDS011;43755;49.736;8.734;2023-05-02T04:33:59;15.57;;;14.07;;
11447;SDS011;43755;49.736;8.734;2023-05-02T04:36:00;19.55;;;17.55;;
11447;SDS011;43755;49.736;8.734;2023-05-02T04:38:02;19.08;;;17.23;;
11447;SDS011;43755;49.736;8.734;2023-05-02T04:40:04;18.10;;;16.23;;
11447;SDS011;43755;49.736;8.734;2023-05-02T04:42:07;16.45;;;14.80;;
11447;SDS011;43755;49.736;8.734;2023-05-02T04:44:09;18.42;;;16.05;;
11447;SDS011;43755;49.736;8.734;2023-05-02T04:46:11;20.15;;;18.13;;
11447;SDS011;43755;49.736;8.734;2023-05-02T04:48:12;20.88;;;18.67;;
11447;SDS011;43755;49.736;8.734;2023-05-02T04:50:14;19.98;;;17.88;;
11447;SDS011;43755;49.736;8.734;2023-05-02T04:52:15;21.85;;;19.58;;
11447;SDS011;43755;49.736;8.734;2023-05-02T04:54:17;33.13;;;29.52;;
11447;SDS011;43755;49.736;8.734;2023-05-02T04:56:18;30.52;;;27.30;;
11447;SDS011;43755;49.736;8.734;2023-05-02T04:58:20;28.80;;;25.90;;
11447;SDS011;43755;49.736;8.734;2023-05-02T05:00:23;27.45;;;24.65;;
11447;SDS011;43755;49.736;8.734;2023-05-02T05:02:24;28.80;;;25.83;;
11447;SDS011;43755;49.736;8.734;2023-05-02T05:04:26;26.73;;;23.92;;
11447;SDS011;43755;49.736;8.734;2023-05-02T05:06:28;26.55;;;24.05;;
11447;SDS011;43755;49.736;8.734;2023-05-02T05:08:30;29.50;;;26.13;;
11447;SDS011;43755;49.736;8.734;2023-05-02T05:10:32;32.15;;;28.95;;
11447;SDS011;43755;49.736;8.734;2023-05-02T05:12:34;32.65;;;29.27;;
11447;SDS011;43755;49.736;8.734;2023-05-02T05:14:35;34.90;;;30.67;;
11447;SDS011;43755;49.736;8.734;2023-05-02T05:16:38;35.20;;;31.55;;
11447;SDS011;43755;49.736;8.734;2023-05-02T05:18:40;35.63;;;31.85;;
11447;SDS011;43755;49.736;8.734;2023-05-02T05:20:41;35.45;;;31.85;;
11447;SDS011;43755;49.736;8.734;2023-05-02T05:22:42;33.67;;;30.38;;
11447;SDS011;43755;49.736;8.734;2023-05-02T05:24:49;35.50;;;31.77;;
11447;SDS011;43755;49.736;8.734;2023-05-02T05:26:51;34.55;;;31.05;;
11447;SDS011;43755;49.736;8.734;2023-05-02T05:28:52;35.42;;;31.63;;
11447;SDS011;43755;49.736;8.734;2023-05-02T05:30:54;36.20;;;32.38;;
11447;SDS011;43755;49.736;8.734;2023-05-02T05:32:57;36.40;;;32.22;;
11447;SDS011;43755;49.736;8.734;2023-05-02T05:34:59;36.58;;;32.67;;
11447;SDS011;43755;49.736;8.734;2023-05-02T05:37:01;37.53;;;33.63;;
11447;SDS011;43755;49.736;8.734;2023-05-02T05:39:02;35.83;;;32.05;;
11447;SDS011;43755;49.736;8.734;2023-05-02T05:41:04;36.83;;;32.85;;
11447;SDS011;43755;49.736;8.734;2023-05-02T05:43:06;35.80;;;32.05;;
11447;SDS011;43755;49.736;8.734;2023-05-02T05:45:08;35.22;;;31.52;;
11447;SDS011;43755;49.736;8.734;2023-05-02T05:47:11;37.55;;;33.53;;
11447;SDS011;43755;49.736;8.734;2023-05-02T05:49:15;39.35;;;34.97;;
11447;SDS011;43755;49.736;8.734;2023-05-02T05:51:17;36.60;;;32.63;;
11447;SDS011;43755;49.736;8.734;2023-05-02T05:53:19;38.35;;;34.25;;
11447;SDS011;43755;49.736;8.734;2023-05-02T05:55:20;38.30;;;33.25;;
11447;SDS011;43755;49.736;8.734;2023-05-02T05:57:22;37.33;;;33.38;;
11447;SDS011;43755;49.736;8.734;2023-05-02T05:59:24;38.72;;;34.60;;
11447;SDS011;43755;49.736;8.734;2023-05-02T06:01:26;38.75;;;34.45;;
11447;SDS011;43755;49.736;8.734;2023-05-02T06:03:27;37.28;;;33.22;;
11447;SDS011;43755;49.736;8.734;2023-05-02T06:05:30;36.17;;;32.25;;
11447;SDS011;43755;49.736;8.734;2023-05-02T06:07:31;36.20;;;32.40;;
11447;SDS011;43755;49.736;8.734;2023-05-02T06:09:33;35.63;;;31.90;;
11447;SDS011;43755;49.736;8.734;2023-05-02T06:11:35;35.30;;;31.60;;
11447;SDS011;43755;49.736;8.734;2023-05-02T06:13:37;37.40;;;33.40;;
11447;SDS011;43755;49.736;8.734;2023-05-02T06:15:38;36.55;;;32.78;;
11447;SDS011;43755;49.736;8.734;2023-05-02T06:17:39;38.05;;;34.03;;
11447;SDS011;43755;49.736;8.734;2023-05-02T06:19:41;38.70;;;34.10;;
11447;SDS011;43755;49.736;8.734;2023-05-02T06:21:44;38.45;;;34.13;;
11447;SDS011;43755;49.736;8.734;2023-05-02T06:23:45;37.65;;;33.65;;
11447;SDS011;43755;49.736;8.734;2023-05-02T06:25:46;36.80;;;32.83;;
11447;SDS011;43755;49.736;8.734;2023-05-02T06:27:48;40.63;;;36.22;;
11447;SDS011;43755;49.736;8.734;2023-05-02T06:29:49;39.47;;;34.45;;
11447;SDS011;43755;49.736;8.734;2023-05-02T06:31:53;39.35;;;35.05;;
11447;SDS011;43755;49.736;8.734;2023-05-02T06:33:55;40.05;;;33.88;;
11447;SDS011;43755;49.736;8.734;2023-05-02T06:35:57;38.03;;;33.97;;
11447;SDS011;43755;49.736;8.734;2023-05-02T06:38:00;38.95;;;34.65;;
11447;SDS011;43755;49.736;8.734;2023-05-02T06:40:01;38.40;;;34.30;;
11447;SDS011;43755;49.736;8.734;2023-05-02T06:42:03;37.95;;;33.85;;
11447;SDS011;43755;49.736;8.734;2023-05-02T06:44:05;38.13;;;34.03;;
11447;SDS011;43755;49.736;8.734;2023-05-02T06:46:06;36.40;;;32.53;;
11447;SDS011;43755;49.736;8.734;2023-05-02T06:48:08;38.15;;;33.95;;
11447;SDS011;43755;49.736;8.734;2023-05-02T06:50:10;37.55;;;33.47;;
11447;SDS011;43755;49.736;8.734;2023-05-02T06:52:11;38.00;;;33.47;;
11447;SDS011;43755;49.736;8.734;2023-05-02T06:54:15;36.90;;;32.55;;
11447;SDS011;43755;49.736;8.734;2023-05-02T06:56:17;38.20;;;34.17;;
11447;SDS011;43755;49.736;8.734;2023-05-02T06:58:18;36.10;;;32.25;;
11447;SDS011;43755;49.736;8.734;2023-05-02T07:00:20;36.15;;;32.03;;
11447;SDS011;43755;49.736;8.734;2023-05-02T07:02:21;36.38;;;32.47;;
11447;SDS011;43755;49.736;8.734;2023-05-02T07:04:22;36.80;;;32.35;;
11447;SDS011;43755;49.736;8.734;2023-05-02T07:06:24;36.08;;;32.20;;
11447;SDS011;43755;49.736;8.734;2023-05-02T07:08:26;35.80;;;31.95;;
11447;SDS011;43755;49.736;8.734;2023-05-02T07:10:28;35.85;;;31.30;;
11447;SDS011;43755;49.736;8.734;2023-05-02T07:12:30;36.47;;;32.08;;
11447;SDS011;43755;49.736;8.734;2023-05-02T07:14:31;33.08;;;29.65;;
11447;SDS011;43755;49.736;8.734;2023-05-02T07:16:33;34.20;;;30.70;;
11447;SDS011;43755;49.736;8.734;2023-05-02T07:18:34;35.17;;;31.30;;
11447;SDS011;43755;49.736;8.734;2023-05-02T07:20:36;33.70;;;29.90;;
11447;SDS011;43755;49.736;8.734;2023-05-02T07:22:39;33.50;;;29.95;;
11447;SDS011;43755;49.736;8.734;2023-05-02T07:24:40;33.22;;;29.70;;
11447;SDS011;43755;49.736;8.734;2023-05-02T07:26:43;31.90;;;28.13;;
11447;SDS011;43755;49.736;8.734;2023-05-02T07:28:45;33.35;;;29.75;;
11447;SDS011;43755;49.736;8.734;2023-05-02T07:30:46;31.45;;;26.40;;
11447;SDS011;43755;49.736;8.734;2023-05-02T07:32:48;32.15;;;28.17;;
11447;SDS011;43755;49.736;8.734;2023-05-02T07:34:49;30.05;;;26.73;;
11447;SDS011;43755;49.736;8.734;2023-05-02T07:36:53;31.30;;;27.88;;
11447;SDS011;43755;49.736;8.734;2023-05-02T07:38:55;31.63;;;28.10;;
11447;SDS011;43755;49.736;8.734;2023-05-02T07:40:56;30.80;;;27.52;;
11447;SDS011;43755;49.736;8.734;2023-05-02T07:43:00;31.25;;;27.85;;
11447;SDS011;43755;49.736;8.734;2023-05-02T07:45:02;31.45;;;27.90;;
11447;SDS011;43755;49.736;8.734;2023-05-02T07:47:04;32.30;;;28.65;;
11447;SDS011;43755;49.736;8.734;2023-05-02T07:49:05;29.95;;;26.75;;
11447;SDS011;43755;49.736;8.734;2023-05-02T07:51:07;32.33;;;27.98;;
11447;SDS011;43755;49.736;8.734;2023-05-02T07:53:09;29.75;;;26.55;;
11447;SDS011;43755;49.736;8.734;2023-05-02T07:55:10;32.50;;;27.90;;
11447;SDS011;43755;49.736;8.734;2023-05-02T07:57:12;27.60;;;24.70;;
11447;SDS011;43755;49.736;8.734;2023-05-02T07:59:15;29.25;;;25.65;;
11447;SDS011;43755;49.736;8.734;2023-05-02T08:01:16;33.83;;;25.48;;
11447;SDS011;43755;49.736;8.734;2023-05-02T08:03:18;30.10;;;26.63;;
11447;SDS011;43755;49.736;8.734;2023-05-02T08:05:19;34.35;;;27.98;;
11447;SDS011;43755;49.736;8.734;2023-05-02T08:07:21;30.63;;;27.25;;
11447;SDS011;43755;49.736;8.734;2023-05-02T08:09:22;33.80;;;29.17;;
11447;SDS011;43755;49.736;8.734;2023-05-02T08:11:23;32.05;;;27.77;;
11447;SDS011;43755;49.736;8.734;2023-05-02T08:13:25;33.88;;;28.50;;
11447;SDS011;43755;49.736;8.734;2023-05-02T08:15:28;35.85;;;28.17;;
11447;SDS011;43755;49.736;8.734;2023-05-02T08:17:30;31.77;;;28.38;;
11447;SDS011;43755;49.736;8.734;2023-05-02T08:19:31;32.70;;;28.55;;
11447;SDS011;43755;49.736;8.734;2023-05-02T08:21:33;35.65;;;29.77;;
11447;SDS011;43755;49.736;8.734;2023-05-02T08:23:34;33.30;;;29.27;;
11447;SDS011;43755;49.736;8.734;2023-05-02T08:25:36;35.15;;;28.15;;
11447;SDS011;43755;49.736;8.734;2023-05-02T08:27:38;31.25;;;27.58;;
11447;SDS011;43755;49.736;8.734;2023-05-02T08:29:39;29.98;;;26.45;;
11447;SDS011;43755;49.736;8.734;2023-05-02T08:31:42;31.45;;;27.08;;
11447;SDS011;43755;49.736;8.734;2023-05-02T08:33:43;30.02;;;26.63;;
11447;SDS011;43755;49.736;8.734;2023-05-02T08:35:45;31.55;;;25.83;;
11447;SDS011;43755;49.736;8.734;2023-05-02T08:37:46;29.85;;;25.95;;
11447;SDS011;43755;49.736;8.734;2023-05-02T08:39:48;30.20;;;26.05;;
11447;SDS011;43755;49.736;8.734;2023-05-02T08:41:49;28.98;;;25.58;;
11447;SDS011;43755;49.736;8.734;2023-05-02T08:43:51;30.08;;;26.77;;
11447;SDS011;43755;49.736;8.734;2023-05-02T08:45:53;30.02;;;26.60;;
11447;SDS011;43755;49.736;8.734;2023-05-02T08:48:01;29.10;;;25.77;;
11447;SDS011;43755;49.736;8.734;2023-05-02T08:50:06;29.38;;;25.05;;
11447;SDS011;43755;49.736;8.734;2023-05-02T08:52:08;28.08;;;24.73;;
11447;SDS011;43755;49.736;8.734;2023-05-02T08:54:11;29.25;;;24.52;;
11447;SDS011;43755;49.736;8.734;2023-05-02T08:56:17;28.83;;;24.48;;
11447;SDS011;43755;49.736;8.734;2023-05-02T08:58:18;27.77;;;23.25;;
11447;SDS011;43755;49.736;8.734;2023-05-02T09:00:20;26.55;;;22.80;;
11447;SDS011;43755;49.736;8.734;2023-05-02T09:02:23;27.75;;;23.70;;
11447;SDS011;43755;49.736;8.734;2023-05-02T09:04:40;31.30;;;25.35;;
11447;SDS011;43755;49.736;8.734;2023-05-02T09:06:42;28.48;;;24.48;;
11447;SDS011;43755;49.736;8.734;2023-05-02T09:08:44;28.67;;;24.42;;
11447;SDS011;43755;49.736;8.734;2023-05-02T09:10:48;28.52;;;24.77;;
11447;SDS011;43755;49.736;8.734;2023-05-02T09:12:50;29.98;;;25.15;;
11447;SDS011;43755;49.736;8.734;2023-05-02T09:17:11;29.33;;;24.80;;
11447;SDS011;43755;49.736;8.734;2023-05-02T09:19:22;28.70;;;25.23;;
11447;SDS011;43755;49.736;8.734;2023-05-02T09:21:35;28.23;;;24.42;;
11447;SDS011;43755;49.736;8.734;2023-05-02T09:23:39;28.27;;;24.20;;
11447;SDS011;43755;49.736;8.734;2023-05-02T09:25:42;29.98;;;24.85;;
11447;SDS011;43755;49.736;8.734;2023-05-02T09:27:50;26.98;;;22.83;;
11447;SDS011;43755;49.736;8.734;2023-05-02T09:29:53;26.80;;;22.60;;
11447;SDS011;43755;49.736;8.734;2023-05-02T09:32:22;20.55;;;17.10;;
11447;SDS011;43755;49.736;8.734;2023-05-02T09:37:07;22.52;;;17.00;;
11447;SDS011;43755;49.736;8.734;2023-05-02T09:39:11;23.15;;;17.38;;
11447;SDS011;43755;49.736;8.734;2023-05-02T09:41:14;24.08;;;17.75;;
11447;SDS011;43755;49.736;8.734;2023-05-02T09:43:16;22.90;;;18.38;;
11447;SDS011;43755;49.736;8.734;2023-05-02T09:45:19;20.75;;;17.02;;
11447;SDS011;43755;49.736;8.734;2023-05-02T09:47:23;23.15;;;18.45;;
11447;SDS011;43755;49.736;8.734;2023-05-02T09:49:38;22.55;;;18.15;;
11447;SDS011;43755;49.736;8.734;2023-05-02T09:51:40;21.85;;;16.90;;
11447;SDS011;43755;49.736;8.734;2023-05-02T09:53:44;21.83;;;17.65;;
11447;SDS011;43755;49.736;8.734;2023-05-02T09:55:46;25.63;;;17.77;;
11447;SDS011;43755;49.736;8.734;2023-05-02T09:57:47;22.25;;;17.00;;
11447;SDS011;43755;49.736;8.734;2023-05-02T09:59:52;19.75;;;17.27;;
11447;SDS011;43755;49.736;8.734;2023-05-02T10:01:55;21.90;;;18.10;;
11447;SDS011;43755;49.736;8.734;2023-05-02T10:03:57;21.65;;;17.13;;
11447;SDS011;43755;49.736;8.734;2023-05-02T10:05:59;21.80;;;17.40;;
11447;SDS011;43755;49.736;8.734;2023-05-02T10:08:00;19.88;;;16.52;;
11447;SDS011;43755;49.736;8.734;2023-05-02T10:10:06;20.95;;;17.15;;
11447;SDS011;43755;49.736;8.734;2023-05-02T10:12:13;18.80;;;15.73;;
11447;SDS011;43755;49.736;8.734;2023-05-02T10:14:15;21.25;;;16.48;;
11447;SDS011;43755;49.736;8.734;2023-05-02T10:16:21;20.83;;;16.65;;
11447;SDS011;43755;49.736;8.734;2023-05-02T10:18:32;20.50;;;16.00;;
11447;SDS011;43755;49.736;8.734;2023-05-02T10:20:42;19.63;;;15.35;;
11447;SDS011;43755;49.736;8.734;2023-05-02T10:22:48;24.88;;;15.57;;
11447;SDS011;43755;49.736;8.734;2023-05-02T10:24:51;18.60;;;15.45;;
11447;SDS011;43755;49.736;8.734;2023-05-02T10:26:54;19.98;;;16.08;;
11447;SDS011;43755;49.736;8.734;2023-05-02T10:28:56;20.23;;;16.63;;
11447;SDS011;43755;49.736;8.734;2023-05-02T10:30:57;21.48;;;16.75;;
11447;SDS011;43755;49.736;8.734;2023-05-02T10:33:02;18.92;;;15.73;;
11447;SDS011;43755;49.736;8.734;2023-05-02T10:35:04;22.65;;;16.17;;
11447;SDS011;43755;49.736;8.734;2023-05-02T10:37:07;19.40;;;15.95;;
11447;SDS011;43755;49.736;8.734;2023-05-02T10:39:08;18.63;;;16.30;;
11447;SDS011;43755;49.736;8.734;2023-05-02T10:41:11;18.67;;;15.00;;
11447;SDS011;43755;49.736;8.734;2023-05-02T10:43:16;22.83;;;16.33;;
11447;SDS011;43755;49.736;8.734;2023-05-02T10:45:29;18.67;;;15.35;;
11447;SDS011;43755;49.736;8.734;2023-05-02T10:47:31;15.95;;;13.90;;
11447;SDS011;43755;49.736;8.734;2023-05-02T10:49:33;19.40;;;14.82;;
11447;SDS011;43755;49.736;8.734;2023-05-02T10:51:49;23.33;;;15.63;;
11447;SDS011;43755;49.736;8.734;2023-05-02T10:53:51;20.02;;;15.27;;
11447;SDS011;43755;49.736;8.734;2023-05-02T10:56:09;18.80;;;15.98;;
11447;SDS011;43755;49.736;8.734;2023-05-02T10:58:20;18.95;;;15.13;;
11447;SDS011;43755;49.736;8.734;2023-05-02T11:00:25;18.15;;;15.65;;
11447;SDS011;43755;49.736;8.734;2023-05-02T11:02:47;18.75;;;14.95;;
11447;SDS011;43755;49.736;8.734;2023-05-02T11:04:58;18.38;;;15.00;;
11447;SDS011;43755;49.736;8.734;2023-05-02T11:07:16;18.88;;;15.57;;
11447;SDS011;43755;49.736;8.734;2023-05-02T11:09:31;18.20;;;14.45;;
11447;SDS011;43755;49.736;8.734;2023-05-02T11:11:37;18.20;;;14.20;;
11447;SDS011;43755;49.736;8.734;2023-05-02T11:13:50;17.25;;;14.27;;
11447;SDS011;43755;49.736;8.734;2023-05-02T11:15:54;16.80;;;13.77;;
11447;SDS011;43755;49.736;8.734;2023-05-02T11:17:59;16.17;;;14.07;;
11447;SDS011;43755;49.736;8.734;2023-05-02T11:22:29;19.55;;;14.75;;
11447;SDS011;43755;49.736;8.734;2023-05-02T11:24:37;16.50;;;14.60;;
11447;SDS011;43755;49.736;8.734;2023-05-02T11:26:39;16.40;;;14.57;;
11447;SDS011;43755;49.736;8.734;2023-05-02T11:28:42;18.02;;;14.88;;
11447;SDS011;43755;49.736;8.734;2023-05-02T11:30:47;15.70;;;13.30;;
11447;SDS011;43755;49.736;8.734;2023-05-02T11:35:19;16.73;;;13.98;;
11447;SDS011;43755;49.736;8.734;2023-05-02T11:37:22;18.27;;;14.15;;
11447;SDS011;43755;49.736;8.734;2023-05-02T11:39:23;16.75;;;13.10;;
11447;SDS011;43755;49.736;8.734;2023-05-02T11:41:37;15.88;;;13.63;;
11447;SDS011;43755;49.736;8.734;2023-05-02T11:43:38;16.85;;;13.10;;
11447;SDS011;43755;49.736;8.734;2023-05-02T11:45:40;17.13;;;13.07;;
11447;SDS011;43755;49.736;8.734;2023-05-02T11:47:44;15.18;;;12.82;;
11447;SDS011;43755;49.736;8.734;2023-05-02T11:49:46;15.80;;;12.38;;
11447;SDS011;43755;49.736;8.734;2023-05-02T11:51:48;15.25;;;12.20;;
11447;SDS011;43755;49.736;8.734;2023-05-02T11:53:49;13.93;;;11.88;;
11447;SDS011;43755;49.736;8.734;2023-05-02T11:55:52;18.85;;;12.57;;
11447;SDS011;43755;49.736;8.734;2023-05-02T11:57:55;14.98;;;12.95;;
11447;SDS011;43755;49.736;8.734;2023-05-02T11:59:56;14.43;;;12.18;;
11447;SDS011;43755;49.736;8.734;2023-05-02T12:01:58;13.65;;;11.30;;
11447;SDS011;43755;49.736;8.734;2023-05-02T12:04:04;12.88;;;10.95;;
11447;SDS011;43755;49.736;8.734;2023-05-02T12:06:07;15.38;;;12.20;;
11447;SDS011;43755;49.736;8.734;2023-05-02T12:08:16;12.32;;;11.02;;
11447;SDS011;43755;49.736;8.734;2023-05-02T12:10:18;13.73;;;11.13;;
11447;SDS011;43755;49.736;8.734;2023-05-02T12:12:20;15.27;;;11.32;;
11447;SDS011;43755;49.736;8.734;2023-05-02T12:14:27;9.20;;;8.13;;
11447;SDS011;43755;49.736;8.734;2023-05-02T12:16:29;10.52;;;8.13;;
11447;SDS011;43755;49.736;8.734;2023-05-02T12:18:31;10.60;;;9.45;;
11447;SDS011;43755;49.736;8.734;2023-05-02T12:20:34;11.50;;;9.50;;